Glensted, Missouri
Current Conditions -  °F | °C
As of 9:09 AM on Thursday 18 Dec 2014 (Local Time) from KDMO Reporting Station
Light Snow Light Snow  
Wind Chill: 24°   Ceiling: 600
Heat Index: 32°   Visibility: 1mi
Dew Point: 29°   Wind: 9mph
Humidity: 88%   Direction: 90°E
Pressure: 30.24"   Gusts: NA
Location:  38.4499°N, 92.8168°W
Report Text: KDMO 181509Z AUTO 09008KT 1SM -SN BR BKN006 OVC015 00/M02 A3024 RMK AO2 P0000 T00001017
Loading
Personal Weather Stations






























Interactive Weather Map New forecast layout! Learn more

10-Day Weather Forecast

Advertisements
Track Severe Weather on mobile